Time;durP1;ratioP1;P1;durP2;ratioP2;P2;SDS_P1;SDS_P2;PMS_P1;PMS_P2;Temp;Humidity;BMP_temperature;BMP_pressure;BME280_temperature;BME280_humidity;BME280_pressure;Samples;Min_cycle;Max_cycle;Signal;HPM_P1;HPM_P2
2022/06/25 00:00:20;;;;;;;1.95;1.15;;;;;;;;;;4954061;29;20212;-90
2022/06/25 00:05:32;;;;;;;2.03;1.42;;;;;;;;;;4949633;29;20288;-90
2022/06/25 00:08:10;;;;;;;1.65;1.27;;;;;;;;;;4955258;28;20215;-90
2022/06/25 00:10:38;;;;;;;1.30;1.20;;;;;;;;;;4954796;29;20212;-91
2022/06/25 00:13:04;;;;;;;1.20;1.10;;;;;;;;;;4955099;28;20320;-90
2022/06/25 00:15:32;;;;;;;1.30;1.20;;;;;;;;;;4954908;28;20235;-89
2022/06/25 00:18:11;;;;;;;1.73;1.20;;;;;;;;;;4954778;28;20200;-90
2022/06/25 00:20:40;;;;;;;1.33;1.23;;;;;;;;;;4955009;29;20213;-89
2022/06/25 00:23:27;;;;;;;1.20;1.15;;;;;;;;;;4954944;28;20320;-89
2022/06/25 00:36:59;;;;;;;1.40;1.30;;;;;;;;;;5076288;27;1305619;-90
2022/06/25 00:39:31;;;;;;;1.38;1.27;;;;;;;;;;5126667;28;20207;-90
2022/06/25 00:42:04;;;;;;;1.30;1.20;;;;;;;;;;5130508;28;20233;-90
2022/06/25 00:44:33;;;;;;;1.30;1.20;;;;;;;;;;5120136;28;20310;-90
2022/06/25 00:47:12;;;;;;;1.27;1.02;;;;;;;;;;5109996;28;20215;-90
2022/06/25 00:49:39;;;;;;;1.90;1.20;;;;;;;;;;5126375;28;20210;-90
2022/06/25 00:52:11;;;;;;;1.23;1.13;;;;;;;;;;5123407;28;20587;-90
2022/06/25 00:54:42;;;;;;;1.35;1.20;;;;;;;;;;5110530;28;20233;-90
2022/06/25 00:57:26;;;;;;;1.77;1.30;;;;;;;;;;5109888;28;20195;-90
2022/06/25 00:59:56;;;;;;;2.20;1.45;;;;;;;;;;5119392;28;20298;-90
2022/06/25 01:02:26;;;;;;;2.50;1.10;;;;;;;;;;5122601;28;20253;-90
2022/06/25 01:04:53;;;;;;;1.00;1.00;;;;;;;;;;5110588;28;20252;-89
2022/06/25 01:07:26;;;;;;;1.30;1.20;;;;;;;;;;5112045;28;20199;-90
2022/06/25 01:10:01;;;;;;;1.35;1.15;;;;;;;;;;5126296;28;20217;-91
2022/06/25 01:12:28;;;;;;;0.98;0.98;;;;;;;;;;5144994;27;20203;-92
2022/06/25 01:15:02;;;;;;;1.80;1.10;;;;;;;;;;5135043;28;20227;-91
2022/06/25 01:17:36;;;;;;;1.30;1.20;;;;;;;;;;5134732;28;20571;-92
2022/06/25 01:20:07;;;;;;;1.25;1.15;;;;;;;;;;5135302;28;20191;-91
2022/06/25 01:22:40;;;;;;;1.23;1.20;;;;;;;;;;5147208;27;20182;-91
2022/06/25 01:25:15;;;;;;;1.40;1.27;;;;;;;;;;5155042;27;20210;-92
2022/06/25 01:27:42;;;;;;;0.90;0.90;;;;;;;;;;5128275;28;20224;-90
2022/06/25 01:30:12;;;;;;;1.65;1.30;;;;;;;;;;5132123;28;20198;-89
2022/06/25 01:32:42;;;;;;;1.10;1.00;;;;;;;;;;5118302;28;20203;-91
2022/06/25 01:35:12;;;;;;;1.30;1.17;;;;;;;;;;5129958;28;20218;-89
2022/06/25 01:37:42;;;;;;;1.23;1.13;;;;;;;;;;5117393;28;20248;-90
2022/06/25 01:40:10;;;;;;;1.15;1.05;;;;;;;;;;5120541;28;20210;-90
2022/06/25 01:45:22;;;;;;;1.30;1.20;;;;;;;;;;5115828;28;20279;-90
2022/06/25 01:47:53;;;;;;;0.98;0.93;;;;;;;;;;5097148;28;20231;-90
2022/06/25 01:50:21;;;;;;;1.25;1.15;;;;;;;;;;5099535;28;20302;-90
2022/06/25 01:52:50;;;;;;;2.38;1.10;;;;;;;;;;5114180;28;20240;-90
2022/06/25 01:55:17;;;;;;;1.20;1.10;;;;;;;;;;5104258;28;20273;-91
2022/06/25 01:57:45;;;;;;;0.90;0.90;;;;;;;;;;5095012;28;20224;-90
2022/06/25 02:00:14;;;;;;;1.30;1.20;;;;;;;;;;5095329;28;20214;-90
2022/06/25 02:02:42;;;;;;;1.30;1.20;;;;;;;;;;5096189;28;20224;-90
2022/06/25 02:05:10;;;;;;;1.17;1.08;;;;;;;;;;5112650;28;20301;-90
2022/06/25 02:07:38;;;;;;;1.20;1.10;;;;;;;;;;5100949;28;20207;-90
2022/06/25 02:10:07;;;;;;;1.27;1.17;;;;;;;;;;5101807;28;20207;-90
2022/06/25 02:12:34;;;;;;;1.58;1.10;;;;;;;;;;5106736;28;20200;-90
2022/06/25 02:15:02;;;;;;;1.30;1.20;;;;;;;;;;5065686;22;20251;-89
2022/06/25 02:17:30;;;;;;;1.20;1.10;;;;;;;;;;5034282;28;20190;-89
2022/06/25 02:20:00;;;;;;;1.38;1.08;;;;;;;;;;5034917;28;20209;-89
2022/06/25 02:22:28;;;;;;;1.42;1.17;;;;;;;;;;5034298;28;20206;-90
2022/06/25 02:24:55;;;;;;;1.02;0.98;;;;;;;;;;5034706;28;20295;-89
2022/06/25 02:27:25;;;;;;;1.25;1.15;;;;;;;;;;5034277;28;20213;-88
2022/06/25 02:29:52;;;;;;;1.48;1.17;;;;;;;;;;5034595;28;20284;-89
2022/06/25 02:32:20;;;;;;;1.42;1.20;;;;;;;;;;5034139;28;20202;-90
2022/06/25 02:34:52;;;;;;;1.42;1.00;;;;;;;;;;5034943;28;20226;-89
2022/06/25 02:37:19;;;;;;;1.10;1.00;;;;;;;;;;5034142;28;20217;-89
2022/06/25 02:39:50;;;;;;;1.38;1.20;;;;;;;;;;5032933;28;20209;-89
2022/06/25 02:42:19;;;;;;;0.90;0.90;;;;;;;;;;5033400;28;20206;-89
2022/06/25 02:44:47;;;;;;;1.08;1.00;;;;;;;;;;5033289;28;20222;-89
2022/06/25 02:47:15;;;;;;;1.55;1.00;;;;;;;;;;5033982;28;20267;-89
2022/06/25 02:49:42;;;;;;;1.27;1.10;;;;;;;;;;5034241;28;20267;-89
2022/06/25 02:52:09;;;;;;;2.72;1.20;;;;;;;;;;5033816;28;20202;-90
2022/06/25 02:54:37;;;;;;;1.52;1.00;;;;;;;;;;5034143;28;20279;-89
2022/06/25 02:59:55;;;;;;;1.00;1.00;;;;;;;;;;5033441;28;20201;-88
2022/06/25 03:02:23;;;;;;;1.98;1.10;;;;;;;;;;5033846;28;20201;-89
2022/06/25 03:04:50;;;;;;;1.00;0.90;;;;;;;;;;5033976;28;20225;-90
2022/06/25 03:07:18;;;;;;;0.95;0.90;;;;;;;;;;5033478;28;20229;-90
2022/06/25 03:09:45;;;;;;;1.20;1.10;;;;;;;;;;5033519;28;20297;-90
2022/06/25 03:12:13;;;;;;;1.20;1.10;;;;;;;;;;5033610;28;20206;-89
2022/06/25 03:14:40;;;;;;;1.00;0.90;;;;;;;;;;5033345;28;20333;-90
2022/06/25 03:17:10;;;;;;;1.33;1.00;;;;;;;;;;5032937;28;20279;-89
2022/06/25 03:19:37;;;;;;;1.30;0.90;;;;;;;;;;5033043;28;20241;-89
2022/06/25 03:22:05;;;;;;;1.20;1.10;;;;;;;;;;5033269;28;20206;-89
2022/06/25 03:24:32;;;;;;;0.98;0.90;;;;;;;;;;5032891;28;20271;-91
2022/06/25 03:26:59;;;;;;;1.00;1.00;;;;;;;;;;5033002;28;20194;-89
2022/06/25 03:29:27;;;;;;;0.90;0.90;;;;;;;;;;5033543;28;20213;-89
2022/06/25 03:31:59;;;;;;;2.17;1.10;;;;;;;;;;5033206;28;20206;-88
2022/06/25 03:34:27;;;;;;;1.02;1.02;;;;;;;;;;5032520;28;20249;-88
2022/06/25 03:36:55;;;;;;;1.20;1.10;;;;;;;;;;5033520;28;20221;-90
2022/06/25 03:39:22;;;;;;;0.90;0.90;;;;;;;;;;5033346;28;20206;-88
2022/06/25 03:41:52;;;;;;;1.25;1.10;;;;;;;;;;5033420;28;20197;-89
2022/06/25 03:44:19;;;;;;;1.25;1.05;;;;;;;;;;5033151;28;20229;-90
2022/06/25 03:46:46;;;;;;;1.25;1.10;;;;;;;;;;5032854;28;20248;-88
2022/06/25 03:49:14;;;;;;;0.90;0.90;;;;;;;;;;5032880;28;20206;-90
2022/06/25 03:51:42;;;;;;;1.27;1.05;;;;;;;;;;5032771;28;20213;-90
2022/06/25 03:54:10;;;;;;;1.13;1.10;;;;;;;;;;5032510;28;20226;-88
2022/06/25 03:56:37;;;;;;;1.50;1.20;;;;;;;;;;5033542;28;20221;-90
2022/06/25 03:59:07;;;;;;;1.00;1.00;;;;;;;;;;5033232;28;20206;-89
2022/06/25 04:01:35;;;;;;;1.00;1.00;;;;;;;;;;5032752;28;20212;-89
2022/06/25 04:04:02;;;;;;;2.05;1.20;;;;;;;;;;5032980;28;20253;-89
2022/06/25 04:06:29;;;;;;;1.20;1.10;;;;;;;;;;5032765;28;20202;-89
2022/06/25 04:09:00;;;;;;;1.20;1.10;;;;;;;;;;5032681;28;20210;-88
2022/06/25 04:11:27;;;;;;;1.50;0.93;;;;;;;;;;5032001;28;20263;-89
2022/06/25 04:14:00;;;;;;;0.90;0.90;;;;;;;;;;5032533;28;20238;-89
2022/06/25 04:16:28;;;;;;;2.65;1.13;;;;;;;;;;5032046;28;20261;-90
2022/06/25 04:18:55;;;;;;;1.15;1.05;;;;;;;;;;5032773;28;20209;-89
2022/06/25 04:21:23;;;;;;;1.13;1.00;;;;;;;;;;5032432;28;20208;-89
2022/06/25 04:23:50;;;;;;;1.77;1.10;;;;;;;;;;5032520;28;20226;-89
2022/06/25 04:26:19;;;;;;;1.20;1.00;;;;;;;;;;5032286;28;20251;-89
2022/06/25 04:29:08;;;;;;;1.30;1.00;;;;;;;;;;5032879;28;20201;-89
2022/06/25 04:31:36;;;;;;;1.17;1.10;;;;;;;;;;5032931;28;20202;-89
2022/06/25 04:34:04;;;;;;;1.02;1.00;;;;;;;;;;5032202;28;20230;-87
2022/06/25 04:36:31;;;;;;;1.05;1.00;;;;;;;;;;5032429;28;20222;-89
2022/06/25 04:38:59;;;;;;;1.13;1.00;;;;;;;;;;5032539;28;20229;-89
2022/06/25 04:41:28;;;;;;;1.00;0.90;;;;;;;;;;5032473;28;20214;-90
2022/06/25 04:43:55;;;;;;;1.38;0.90;;;;;;;;;;5032704;28;20232;-88
2022/06/25 04:46:24;;;;;;;1.42;1.02;;;;;;;;;;5033165;28;20206;-90
2022/06/25 04:48:51;;;;;;;0.98;0.90;;;;;;;;;;5032529;28;20205;-90
2022/06/25 04:51:19;;;;;;;1.25;1.15;;;;;;;;;;5032163;28;20206;-89
2022/06/25 04:53:58;;;;;;;1.00;0.90;;;;;;;;;;5031904;28;20256;-89
2022/06/25 04:56:30;;;;;;;1.50;0.90;;;;;;;;;;5022825;28;20268;-89
2022/06/25 04:59:00;;;;;;;1.30;0.85;;;;;;;;;;5027529;28;20198;-89
2022/06/25 05:01:28;;;;;;;1.25;1.20;;;;;;;;;;5028351;28;20203;-89
2022/06/25 05:03:55;;;;;;;0.85;0.85;;;;;;;;;;5030661;28;20217;-89
2022/06/25 05:06:24;;;;;;;1.33;0.85;;;;;;;;;;5027625;28;20195;-90
2022/06/25 05:08:53;;;;;;;1.08;0.98;;;;;;;;;;5029061;28;20216;-90
2022/06/25 05:11:20;;;;;;;1.00;1.00;;;;;;;;;;5026272;28;20224;-89
2022/06/25 05:13:49;;;;;;;1.85;1.02;;;;;;;;;;5033161;28;20233;-89
2022/06/25 05:16:17;;;;;;;1.75;1.15;;;;;;;;;;5032137;28;20222;-89
2022/06/25 05:18:44;;;;;;;1.00;1.00;;;;;;;;;;5028867;28;20202;-91
2022/06/25 05:21:15;;;;;;;2.17;1.13;;;;;;;;;;5032136;28;20212;-90
2022/06/25 05:23:42;;;;;;;1.15;1.05;;;;;;;;;;5036040;28;20221;-89
2022/06/25 05:26:09;;;;;;;1.45;1.10;;;;;;;;;;5035771;28;20225;-89
2022/06/25 05:28:37;;;;;;;1.08;0.98;;;;;;;;;;5036153;28;20209;-88
2022/06/25 05:31:07;;;;;;;1.10;1.00;;;;;;;;;;5034274;28;20202;-87
2022/06/25 05:33:36;;;;;;;2.05;1.00;;;;;;;;;;5031908;28;20228;-88
2022/06/25 05:36:03;;;;;;;0.98;0.90;;;;;;;;;;5035443;28;20205;-89
2022/06/25 05:38:30;;;;;;;1.10;1.00;;;;;;;;;;5035573;28;20224;-89
2022/06/25 05:40:58;;;;;;;2.22;0.90;;;;;;;;;;5035153;28;20214;-87
2022/06/25 05:43:27;;;;;;;1.35;0.90;;;;;;;;;;5033405;28;20225;-88
2022/06/25 05:45:57;;;;;;;2.60;1.02;;;;;;;;;;5034691;28;20221;-89
2022/06/25 05:48:26;;;;;;;1.52;0.98;;;;;;;;;;5034738;28;20221;-90
2022/06/25 05:50:53;;;;;;;1.17;0.90;;;;;;;;;;5033754;28;20249;-88
2022/06/25 05:53:26;;;;;;;2.22;1.00;;;;;;;;;;5032962;28;20295;-90
2022/06/25 05:55:56;;;;;;;1.20;1.10;;;;;;;;;;5027067;28;20206;-89
2022/06/25 05:58:29;;;;;;;1.77;1.15;;;;;;;;;;5033220;28;20546;-89
2022/06/25 06:00:57;;;;;;;1.77;1.10;;;;;;;;;;5030234;28;20202;-89
2022/06/25 06:03:26;;;;;;;1.88;1.13;;;;;;;;;;5031946;28;20202;-88
2022/06/25 06:05:55;;;;;;;1.20;1.10;;;;;;;;;;5031490;28;20206;-90
2022/06/25 06:08:23;;;;;;;1.60;0.90;;;;;;;;;;5031460;28;20233;-89
2022/06/25 06:10:55;;;;;;;1.42;1.08;;;;;;;;;;5032945;28;20194;-89
2022/06/25 06:13:31;;;;;;;1.77;1.02;;;;;;;;;;5033969;28;20291;-89
2022/06/25 06:16:00;;;;;;;1.88;1.10;;;;;;;;;;5030645;28;20206;-88
2022/06/25 06:18:29;;;;;;;2.05;1.25;;;;;;;;;;5032039;28;20230;-88
2022/06/25 06:20:59;;;;;;;0.98;0.93;;;;;;;;;;5031576;28;20236;-90
2022/06/25 06:23:26;;;;;;;1.73;1.00;;;;;;;;;;5034126;28;20303;-90
2022/06/25 06:25:57;;;;;;;1.55;0.88;;;;;;;;;;5032074;28;20267;-89
2022/06/25 06:28:28;;;;;;;0.95;0.90;;;;;;;;;;5035260;28;20210;-87
2022/06/25 06:30:55;;;;;;;1.67;0.95;;;;;;;;;;5028483;28;20213;-90
2022/06/25 06:33:36;;;;;;;2.08;1.02;;;;;;;;;;5038694;28;20202;-87
2022/06/25 06:36:12;;;;;;;1.48;0.98;;;;;;;;;;5035689;28;20198;-89
2022/06/25 06:38:41;;;;;;;2.42;1.02;;;;;;;;;;5038230;28;20197;-90
2022/06/25 06:41:12;;;;;;;1.90;1.10;;;;;;;;;;5035454;28;20214;-88
2022/06/25 06:52:43;;;;;;;96.03;71.25;;;;;;;;;;4948971;29;20212;-89
2022/06/25 06:55:12;;;;;;;141.02;110.90;;;;;;;;;;4978371;28;20232;-90
2022/06/25 06:57:40;;;;;;;129.05;100.53;;;;;;;;;;5033828;28;20233;-88
2022/06/25 07:00:09;;;;;;;125.00;99.60;;;;;;;;;;5033827;28;20218;-87
2022/06/25 07:02:39;;;;;;;88.55;70.13;;;;;;;;;;5035370;28;20232;-88
2022/06/25 07:08:15;;;;;;;49.88;36.50;;;;;;;;;;4953865;29;20215;-88
2022/06/25 07:10:42;;;;;;;46.65;35.83;;;;;;;;;;4954636;28;20218;-89
2022/06/25 07:13:14;;;;;;;47.97;31.50;;;;;;;;;;4958598;28;20263;-87
2022/06/25 07:15:48;;;;;;;38.88;28.30;;;;;;;;;;4949807;28;20212;-89
2022/06/25 07:21:17;;;;;;;27.20;18.83;;;;;;;;;;4892134;29;20206;-86
2022/06/25 07:23:48;;;;;;;20.42;17.02;;;;;;;;;;4950409;28;20221;-87
2022/06/25 07:26:26;;;;;;;21.55;15.70;;;;;;;;;;4953057;28;20203;-88
2022/06/25 07:29:15;;;;;;;20.13;14.63;;;;;;;;;;4964813;28;20208;-87
2022/06/25 07:34:29;;;;;;;12.57;8.43;;;;;;;;;;4896681;29;20265;-90
2022/06/25 07:59:31;;;;;;;644.10;222.57;;;;;;;;;;4930446;29;20202;-85
2022/06/25 08:14:31;;;;;;;124.78;44.40;;;;;;;;;;5128613;22;20316;-89
2022/06/25 08:16:59;;;;;;;110.78;39.63;;;;;;;;;;5012737;28;20265;-89
2022/06/25 08:19:26;;;;;;;107.93;37.40;;;;;;;;;;5013263;28;20202;-89
2022/06/25 08:21:53;;;;;;;83.63;30.77;;;;;;;;;;5012933;28;20289;-90
2022/06/25 08:27:34;;;;;;;66.30;25.80;;;;;;;;;;4971142;28;20200;-91
2022/06/25 08:36:39;;;;;;;40.22;15.65;;;;;;;;;;4937870;29;20211;-90
2022/06/25 08:39:21;;;;;;;36.13;14.52;;;;;;;;;;4940709;29;20211;-90
2022/06/25 08:45:12;;;;;;;24.02;9.88;;;;;;;;;;4914095;29;20245;-90
2022/06/25 08:48:00;;;;;;;23.33;9.13;;;;;;;;;;4913988;29;20225;-90
2022/06/25 08:59:09;;;;;;;11.57;5.93;;;;;;;;;;4781377;30;20842;-89
2022/06/25 09:01:37;;;;;;;12.88;5.35;;;;;;;;;;4792864;29;20210;-91
2022/06/25 09:04:04;;;;;;;11.73;5.70;;;;;;;;;;4833142;29;20235;-91
2022/06/25 09:06:32;;;;;;;10.68;5.13;;;;;;;;;;4861799;29;20211;-89
2022/06/25 09:09:10;;;;;;;8.40;4.72;;;;;;;;;;4861528;29;20207;-90
2022/06/25 09:11:49;;;;;;;7.95;4.30;;;;;;;;;;4861780;29;20222;-91
2022/06/25 09:14:24;;;;;;;10.20;4.25;;;;;;;;;;4861629;29;20247;-91
2022/06/25 09:16:59;;;;;;;7.70;3.97;;;;;;;;;;4861622;29;20222;-90
2022/06/25 09:19:30;;;;;;;8.05;4.20;;;;;;;;;;4861169;29;20207;-89
2022/06/25 09:21:58;;;;;;;8.80;4.05;;;;;;;;;;4863086;29;20214;-85
2022/06/25 09:24:25;;;;;;;6.30;3.65;;;;;;;;;;4895506;29;20312;-89
2022/06/25 09:26:52;;;;;;;6.45;3.45;;;;;;;;;;4917272;29;20295;-89
2022/06/25 09:29:22;;;;;;;6.47;3.22;;;;;;;;;;4917441;29;20270;-88
2022/06/25 09:31:51;;;;;;;5.90;3.20;;;;;;;;;;4917340;29;20289;-88
2022/06/25 09:34:18;;;;;;;5.00;3.05;;;;;;;;;;4917338;29;20289;-88
2022/06/25 09:36:46;;;;;;;3.85;2.83;;;;;;;;;;4917358;29;20289;-87
2022/06/25 09:39:13;;;;;;;4.43;2.90;;;;;;;;;;4917238;29;20277;-88
2022/06/25 09:41:50;;;;;;;4.78;2.80;;;;;;;;;;4917620;29;20244;-89
2022/06/25 09:44:18;;;;;;;3.75;2.33;;;;;;;;;;4917285;29;20704;-90
2022/06/25 09:46:57;;;;;;;5.50;2.90;;;;;;;;;;4961096;28;20207;-88
2022/06/25 09:49:28;;;;;;;3.17;2.45;;;;;;;;;;4996026;28;20206;-89
2022/06/25 09:52:01;;;;;;;3.55;2.40;;;;;;;;;;4996110;28;20207;-89
2022/06/25 09:54:29;;;;;;;3.40;2.20;;;;;;;;;;4996622;28;20306;-89
2022/06/25 09:56:56;;;;;;;2.42;1.88;;;;;;;;;;4995842;28;20283;-88
2022/06/25 09:59:25;;;;;;;2.67;2.08;;;;;;;;;;4995283;28;20255;-88
2022/06/25 10:01:53;;;;;;;2.55;2.25;;;;;;;;;;4995675;28;20294;-88
2022/06/25 10:04:22;;;;;;;2.92;1.90;;;;;;;;;;4995765;28;20234;-88
2022/06/25 10:06:51;;;;;;;2.33;1.80;;;;;;;;;;4995203;28;20214;-89
2022/06/25 10:09:19;;;;;;;2.83;1.95;;;;;;;;;;4995283;28;20195;-88
2022/06/25 10:11:46;;;;;;;2.17;1.98;;;;;;;;;;4995418;28;20231;-89
2022/06/25 10:14:15;;;;;;;2.42;1.92;;;;;;;;;;4995853;28;20242;-89
2022/06/25 10:16:43;;;;;;;2.35;1.98;;;;;;;;;;4997794;28;20206;-91
2022/06/25 10:19:11;;;;;;;2.15;1.90;;;;;;;;;;4995440;28;20234;-89
2022/06/25 10:21:40;;;;;;;2.00;1.80;;;;;;;;;;4996376;28;20207;-89
2022/06/25 10:24:08;;;;;;;2.60;1.90;;;;;;;;;;4995524;28;20231;-90
2022/06/25 10:26:36;;;;;;;2.60;1.88;;;;;;;;;;4995113;28;20211;-90
2022/06/25 10:29:04;;;;;;;2.50;1.77;;;;;;;;;;4995611;28;20195;-89
2022/06/25 10:31:31;;;;;;;1.70;1.60;;;;;;;;;;4995514;28;20199;-89
2022/06/25 10:34:02;;;;;;;2.17;1.52;;;;;;;;;;4995345;28;20281;-90
2022/06/25 10:36:47;;;;;;;1.95;1.83;;;;;;;;;;4995998;28;20273;-91
2022/06/25 10:39:35;;;;;;;1.98;1.77;;;;;;;;;;4998265;28;20310;-91
2022/06/25 10:45:07;;;;;;;2.15;1.63;;;;;;;;;;4994983;28;20206;-89
2022/06/25 10:47:38;;;;;;;2.97;1.83;;;;;;;;;;4994729;28;20231;-87
2022/06/25 10:50:23;;;;;;;2.80;1.80;;;;;;;;;;4994061;28;20199;-90
2022/06/25 10:53:06;;;;;;;2.33;1.80;;;;;;;;;;4994272;28;20232;-89
2022/06/25 10:55:37;;;;;;;1.65;1.55;;;;;;;;;;4994850;28;20227;-89
2022/06/25 10:58:12;;;;;;;1.88;1.70;;;;;;;;;;4994505;28;20223;-90
2022/06/25 11:00:48;;;;;;;1.70;1.60;;;;;;;;;;4994913;28;20206;-89
2022/06/25 11:03:16;;;;;;;2.20;1.70;;;;;;;;;;4994374;28;20286;-90
2022/06/25 11:05:45;;;;;;;1.63;1.52;;;;;;;;;;4994512;28;20219;-90
2022/06/25 11:08:12;;;;;;;1.85;1.60;;;;;;;;;;4994401;28;20254;-90
2022/06/25 11:10:42;;;;;;;1.95;1.60;;;;;;;;;;4994670;28;20214;-89
2022/06/25 11:13:09;;;;;;;1.80;1.70;;;;;;;;;;4994904;28;20213;-89
2022/06/25 11:15:41;;;;;;;1.33;1.23;;;;;;;;;;4994463;28;20230;-88
2022/06/25 11:18:08;;;;;;;1.60;1.50;;;;;;;;;;4994688;28;20220;-90
2022/06/25 11:20:36;;;;;;;1.60;1.50;;;;;;;;;;4995032;28;20277;-89
2022/06/25 11:23:06;;;;;;;1.58;1.48;;;;;;;;;;4995234;28;20212;-90
2022/06/25 11:28:52;;;;;;;1.55;1.42;;;;;;;;;;4934741;29;20193;-90
2022/06/25 11:31:20;;;;;;;1.45;1.35;;;;;;;;;;4934042;29;20668;-90
2022/06/25 11:33:48;;;;;;;2.00;1.80;;;;;;;;;;4963001;28;20245;-91
2022/06/25 11:36:16;;;;;;;1.58;1.48;;;;;;;;;;4994675;28;20203;-91
2022/06/25 11:38:43;;;;;;;1.60;1.50;;;;;;;;;;4994872;28;20274;-83
2022/06/25 11:41:21;;;;;;;1.60;1.50;;;;;;;;;;4995177;28;20238;-83
2022/06/25 11:43:48;;;;;;;2.00;1.50;;;;;;;;;;4995517;28;20234;-83
2022/06/25 11:46:18;;;;;;;1.60;1.50;;;;;;;;;;4995431;28;20202;-83
2022/06/25 11:48:47;;;;;;;1.60;1.50;;;;;;;;;;4994927;28;20219;-83
2022/06/25 11:51:16;;;;;;;2.15;1.60;;;;;;;;;;4996096;28;20676;-81
2022/06/25 11:53:44;;;;;;;2.08;1.60;;;;;;;;;;4995023;28;20211;-83
2022/06/25 11:56:11;;;;;;;1.77;1.67;;;;;;;;;;4995592;28;20232;-81
2022/06/25 11:58:42;;;;;;;1.60;1.50;;;;;;;;;;4995465;28;20265;-82
2022/06/25 12:01:09;;;;;;;1.67;1.50;;;;;;;;;;4995234;28;20238;-82
2022/06/25 12:03:37;;;;;;;2.22;1.70;;;;;;;;;;4994712;28;20230;-84
2022/06/25 12:06:04;;;;;;;1.58;1.48;;;;;;;;;;4995039;28;20203;-84
2022/06/25 12:08:32;;;;;;;1.67;1.58;;;;;;;;;;4995336;28;20228;-83
2022/06/25 12:11:00;;;;;;;1.55;1.30;;;;;;;;;;4997182;28;20206;-83
2022/06/25 12:13:28;;;;;;;1.40;1.30;;;;;;;;;;4995444;28;20207;-80
2022/06/25 12:16:00;;;;;;;1.60;1.50;;;;;;;;;;4995070;28;20230;-83
2022/06/25 12:18:34;;;;;;;1.45;1.35;;;;;;;;;;4994600;28;20242;-83
2022/06/25 12:21:02;;;;;;;1.58;1.48;;;;;;;;;;4994577;28;20205;-82
2022/06/25 12:23:30;;;;;;;1.60;1.50;;;;;;;;;;4994918;28;20203;-81
2022/06/25 12:25:57;;;;;;;1.50;1.40;;;;;;;;;;4994575;28;20620;-82
2022/06/25 12:28:40;;;;;;;1.63;1.52;;;;;;;;;;4995226;28;20665;-82
2022/06/25 12:31:13;;;;;;;1.27;1.20;;;;;;;;;;4995146;28;20200;-82
2022/06/25 12:33:41;;;;;;;1.70;1.60;;;;;;;;;;4994829;28;20242;-82
2022/06/25 12:36:17;;;;;;;1.52;1.42;;;;;;;;;;4995290;28;20239;-82
2022/06/25 12:39:04;;;;;;;1.80;1.60;;;;;;;;;;4994525;28;20249;-82
2022/06/25 12:41:51;;;;;;;1.50;1.40;;;;;;;;;;4995522;28;20210;-82
2022/06/25 12:44:25;;;;;;;1.70;1.60;;;;;;;;;;4995422;28;20302;-82
2022/06/25 12:47:11;;;;;;;1.45;1.35;;;;;;;;;;4994792;28;20250;-82
2022/06/25 12:49:49;;;;;;;1.70;1.52;;;;;;;;;;4995552;28;20277;-82
2022/06/25 12:52:20;;;;;;;1.55;1.45;;;;;;;;;;4995389;28;20210;-83
2022/06/25 12:54:49;;;;;;;1.40;1.30;;;;;;;;;;4994609;28;20230;-82
2022/06/25 12:57:24;;;;;;;1.50;1.40;;;;;;;;;;4994993;28;20199;-82
2022/06/25 12:59:57;;;;;;;1.70;1.60;;;;;;;;;;4994785;28;20250;-82
2022/06/25 13:02:31;;;;;;;1.40;1.30;;;;;;;;;;4995682;28;20358;-82
2022/06/25 13:04:59;;;;;;;1.88;1.55;;;;;;;;;;4995312;28;20246;-82
2022/06/25 13:07:26;;;;;;;1.45;1.35;;;;;;;;;;4994585;28;20203;-82
2022/06/25 13:10:01;;;;;;;1.38;1.27;;;;;;;;;;4994744;28;20226;-83
2022/06/25 13:12:32;;;;;;;1.67;1.58;;;;;;;;;;4994150;28;20207;-82
2022/06/25 13:15:01;;;;;;;1.50;1.40;;;;;;;;;;4994484;28;20285;-82
2022/06/25 13:17:29;;;;;;;1.58;1.48;;;;;;;;;;4994513;28;20219;-81
2022/06/25 13:19:57;;;;;;;1.50;1.40;;;;;;;;;;4995463;28;20277;-82
2022/06/25 13:22:24;;;;;;;1.50;1.40;;;;;;;;;;4994431;28;20242;-82
2022/06/25 13:24:51;;;;;;;1.50;1.40;;;;;;;;;;4992505;28;20234;-84
2022/06/25 13:27:19;;;;;;;1.45;1.35;;;;;;;;;;4989953;28;20233;-86
2022/06/25 13:29:46;;;;;;;1.60;1.50;;;;;;;;;;4993334;28;20207;-81
2022/06/25 13:32:16;;;;;;;1.48;1.38;;;;;;;;;;4990469;28;20231;-80
2022/06/25 13:34:45;;;;;;;2.13;1.52;;;;;;;;;;4987788;28;20322;-82
2022/06/25 13:37:13;;;;;;;1.48;1.38;;;;;;;;;;4977283;28;20200;-81
2022/06/25 13:39:40;;;;;;;1.40;1.30;;;;;;;;;;4994422;28;20243;-82
2022/06/25 13:42:07;;;;;;;1.42;1.30;;;;;;;;;;4978937;28;20204;-82
2022/06/25 13:44:35;;;;;;;1.42;1.33;;;;;;;;;;4991921;28;20219;-84
2022/06/25 13:47:02;;;;;;;1.65;1.48;;;;;;;;;;4998164;28;20207;-86
2022/06/25 13:49:32;;;;;;;2.17;1.38;;;;;;;;;;5007585;28;20202;-83
2022/06/25 13:52:01;;;;;;;2.17;1.40;;;;;;;;;;5003200;28;20564;-82
2022/06/25 13:54:29;;;;;;;2.30;1.42;;;;;;;;;;4998260;28;20266;-85
2022/06/25 13:56:56;;;;;;;1.30;1.20;;;;;;;;;;4996515;28;20203;-85
2022/06/25 13:59:24;;;;;;;1.30;1.20;;;;;;;;;;4995687;28;20233;-86
2022/06/25 14:01:51;;;;;;;2.38;1.48;;;;;;;;;;4992265;28;20200;-82
2022/06/25 14:04:18;;;;;;;5.00;1.50;;;;;;;;;;4990166;28;20215;-83
2022/06/25 14:06:46;;;;;;;6.20;1.42;;;;;;;;;;4996882;28;20203;-85
2022/06/25 14:09:15;;;;;;;4.28;1.88;;;;;;;;;;4992794;28;20200;-83
2022/06/25 14:11:43;;;;;;;3.92;1.63;;;;;;;;;;4992376;28;20207;-84
2022/06/25 14:14:11;;;;;;;1.70;1.20;;;;;;;;;;4996247;28;20261;-81
2022/06/25 14:16:38;;;;;;;1.52;1.40;;;;;;;;;;4991758;28;20204;-86
2022/06/25 14:19:05;;;;;;;1.52;1.40;;;;;;;;;;4987051;28;20282;-85
2022/06/25 14:21:33;;;;;;;2.03;1.50;;;;;;;;;;4989473;28;20207;-82
2022/06/25 14:24:00;;;;;;;3.08;1.50;;;;;;;;;;4988049;28;20224;-84
2022/06/25 14:26:29;;;;;;;1.35;1.25;;;;;;;;;;4985076;28;20199;-82
2022/06/25 14:28:56;;;;;;;1.50;1.40;;;;;;;;;;4984281;28;20255;-82
2022/06/25 14:31:24;;;;;;;1.30;1.20;;;;;;;;;;4990232;28;20199;-82
2022/06/25 14:33:51;;;;;;;1.80;1.30;;;;;;;;;;4984505;28;20306;-82
2022/06/25 14:44:44;;;;;;;1.20;1.10;;;;;;;;;;4970679;28;20219;-84
2022/06/25 14:47:17;;;;;;;1.27;1.17;;;;;;;;;;4990772;28;20684;-84
2022/06/25 14:49:49;;;;;;;1.40;1.30;;;;;;;;;;4986579;28;20243;-83
2022/06/25 14:52:17;;;;;;;1.20;1.10;;;;;;;;;;4993467;28;20204;-83
2022/06/25 14:54:48;;;;;;;1.30;1.20;;;;;;;;;;4995071;28;20614;-81
2022/06/25 14:57:17;;;;;;;1.40;1.30;;;;;;;;;;4984591;28;20246;-80
2022/06/25 14:59:44;;;;;;;1.27;1.17;;;;;;;;;;4989665;28;20239;-80
2022/06/25 15:02:11;;;;;;;1.35;1.25;;;;;;;;;;4990727;28;20203;-84
2022/06/25 15:04:39;;;;;;;1.20;1.20;;;;;;;;;;4987168;28;20224;-83
2022/06/25 15:07:06;;;;;;;1.27;1.20;;;;;;;;;;4990427;28;20304;-86
2022/06/25 15:09:33;;;;;;;1.30;1.20;;;;;;;;;;4987180;28;20196;-84
2022/06/25 15:12:01;;;;;;;1.35;1.25;;;;;;;;;;4992570;28;20286;-81
2022/06/25 15:14:29;;;;;;;1.40;1.27;;;;;;;;;;4986607;28;20339;-86
2022/06/25 15:16:57;;;;;;;1.38;1.27;;;;;;;;;;4986532;28;20251;-82
2022/06/25 15:19:24;;;;;;;1.30;1.20;;;;;;;;;;4980143;28;20274;-84
2022/06/25 15:21:54;;;;;;;1.48;1.38;;;;;;;;;;4987091;28;20211;-83
2022/06/25 15:24:22;;;;;;;1.27;1.17;;;;;;;;;;4987505;28;20290;-82
2022/06/25 15:26:51;;;;;;;1.40;1.30;;;;;;;;;;4989310;28;20200;-81
2022/06/25 15:29:19;;;;;;;1.20;1.20;;;;;;;;;;4980149;28;20215;-83
2022/06/25 15:31:48;;;;;;;2.70;1.23;;;;;;;;;;4988805;28;20217;-87
2022/06/25 15:34:15;;;;;;;12.98;3.83;;;;;;;;;;4994272;28;20238;-86
2022/06/25 15:36:42;;;;;;;21.20;5.30;;;;;;;;;;4983577;28;20242;-84
2022/06/25 15:39:10;;;;;;;20.13;6.25;;;;;;;;;;4984037;28;20210;-85
2022/06/25 15:41:37;;;;;;;29.17;7.65;;;;;;;;;;4989393;28;20282;-86
2022/06/25 15:44:05;;;;;;;32.45;8.45;;;;;;;;;;4988239;28;20254;-87
2022/06/25 15:46:35;;;;;;;33.00;8.32;;;;;;;;;;4994120;28;20212;-82
2022/06/25 15:49:04;;;;;;;7.72;3.50;;;;;;;;;;4993458;28;20206;-85
2022/06/25 15:51:42;;;;;;;3.70;1.98;;;;;;;;;;4989577;28;20234;-93
2022/06/25 15:54:11;;;;;;;4.25;1.80;;;;;;;;;;4987013;28;20247;-92
2022/06/25 15:56:55;;;;;;;5.10;2.17;;;;;;;;;;4987321;28;20254;-94
2022/06/25 16:02:12;;;;;;;4.07;1.88;;;;;;;;;;4979321;28;20208;-94
2022/06/25 16:04:44;;;;;;;5.60;2.15;;;;;;;;;;4982362;28;20281;-93
2022/06/25 16:07:11;;;;;;;3.72;2.00;;;;;;;;;;4990943;28;20235;-92
2022/06/25 16:09:41;;;;;;;7.65;3.05;;;;;;;;;;4986280;28;20195;-93
2022/06/25 16:12:19;;;;;;;50.15;11.95;;;;;;;;;;4994476;28;20258;-92
2022/06/25 16:14:52;;;;;;;35.55;9.02;;;;;;;;;;4993279;28;20309;-93
2022/06/25 16:20:12;;;;;;;4.95;2.45;;;;;;;;;;4968044;28;20230;-93
2022/06/25 16:22:39;;;;;;;4.57;2.50;;;;;;;;;;4974923;28;20210;-93
2022/06/25 16:28:04;;;;;;;5.40;2.63;;;;;;;;;;4987485;28;20222;-92
2022/06/25 16:30:46;;;;;;;7.88;2.95;;;;;;;;;;4993006;28;20198;-92
2022/06/25 16:36:00;;;;;;;4.90;2.17;;;;;;;;;;5120836;22;20233;-90
2022/06/25 16:38:27;;;;;;;3.20;2.22;;;;;;;;;;5052765;28;20291;-91
2022/06/25 16:41:00;;;;;;;3.53;2.03;;;;;;;;;;5051575;28;20655;-92
2022/06/25 16:46:12;;;;;;;4.90;2.08;;;;;;;;;;5050067;28;20201;-93
2022/06/25 16:48:42;;;;;;;4.22;2.33;;;;;;;;;;5053154;28;20288;-93
2022/06/25 16:53:57;;;;;;;2.28;2.08;;;;;;;;;;5025639;28;20228;-92
2022/06/25 16:56:27;;;;;;;3.42;2.10;;;;;;;;;;5021665;28;20203;-92
2022/06/25 16:58:55;;;;;;;2.00;1.83;;;;;;;;;;5015011;28;20202;-93
2022/06/25 17:01:50;;;;;;;2.50;2.17;;;;;;;;;;5019140;28;20250;-91